Time;durP1;ratioP1;P1;durP2;ratioP2;P2;SDS_P1;SDS_P2;PMS_P1;PMS_P2;Temp;Humidity;BMP_temperature;BMP_pressure;BME280_temperature;BME280_humidity;BME280_pressure;Samples;Min_cycle;Max_cycle;Signal;HPM_P1;HPM_P2
2023/02/04 00:01:05;;;;;;;2.03;1.00;;;4.70;99.90;;;;;;5027931;28;20100;-75
2023/02/04 00:03:34;;;;;;;2.83;1.20;;;4.70;99.90;;;;;;5027536;28;20037;-76
2023/02/04 00:05:59;;;;;;;1039.22;527.08;;;4.70;99.90;;;;;;5012476;28;20076;-76
2023/02/04 00:08:25;;;;;;;550.88;248.25;;;4.80;99.90;;;;;;5025542;28;20139;-76
2023/02/04 00:10:51;;;;;;;444.05;182.52;;;4.80;99.90;;;;;;5026751;28;20029;-74
2023/02/04 00:13:17;;;;;;;334.30;156.90;;;4.80;99.90;;;;;;5011306;28;20061;-75
2023/02/04 00:15:42;;;;;;;20.63;12.68;;;4.80;99.90;;;;;;5025526;28;20382;-75
2023/02/04 00:18:08;;;;;;;5.00;1.90;;;4.90;99.90;;;;;;5013349;28;20509;-74
2023/02/04 00:20:34;;;;;;;1.90;0.90;;;5.00;99.90;;;;;;5030012;28;20025;-76
2023/02/04 00:23:00;;;;;;;3.63;1.02;;;5.00;99.90;;;;;;5035229;28;20040;-78
2023/02/04 00:25:26;;;;;;;2.63;1.10;;;4.90;99.90;;;;;;5013032;28;20034;-74
2023/02/04 00:27:51;;;;;;;2.25;0.70;;;4.80;99.90;;;;;;5034068;28;20265;-74
2023/02/04 00:30:17;;;;;;;3.03;1.00;;;4.80;99.90;;;;;;5012066;28;21119;-74
2023/02/04 00:32:43;;;;;;;2.47;0.80;;;4.80;99.90;;;;;;5030220;28;20076;-76
2023/02/04 00:35:09;;;;;;;3.85;0.90;;;4.70;99.90;;;;;;5011350;28;20034;-74
2023/02/04 00:37:35;;;;;;;4.18;0.93;;;4.70;99.90;;;;;;5043295;28;20112;-74
2023/02/04 00:40:00;;;;;;;3.13;1.17;;;4.70;99.90;;;;;;5024493;28;20450;-75
2023/02/04 00:42:26;;;;;;;22.95;7.97;;;4.70;99.90;;;;;;5026138;28;20025;-77
2023/02/04 00:44:52;;;;;;;7.55;2.58;;;4.60;99.90;;;;;;5028236;28;20037;-75
2023/02/04 00:47:18;;;;;;;2.85;1.33;;;4.60;99.90;;;;;;5025450;28;20848;-76
2023/02/04 00:49:44;;;;;;;5.88;1.55;;;4.60;99.90;;;;;;5020786;28;20033;-76
2023/02/04 00:52:10;;;;;;;5.90;1.27;;;4.50;99.90;;;;;;5029589;28;20029;-76
2023/02/04 00:54:35;;;;;;;2.75;1.20;;;4.50;99.90;;;;;;5007491;28;20029;-76
2023/02/04 00:57:01;;;;;;;1.75;0.90;;;4.50;99.90;;;;;;5010690;28;20409;-76
2023/02/04 00:59:27;;;;;;;4.53;1.10;;;4.40;99.90;;;;;;5024822;28;20465;-76
2023/02/04 01:01:53;;;;;;;4.03;1.05;;;4.40;99.90;;;;;;5042517;28;20499;-75
2023/02/04 01:04:18;;;;;;;5.03;1.58;;;4.40;99.90;;;;;;5032842;28;20029;-75
2023/02/04 01:06:44;;;;;;;3.30;1.42;;;4.30;99.90;;;;;;5038502;28;20021;-75
2023/02/04 01:09:10;;;;;;;2.90;1.20;;;4.30;99.90;;;;;;5033525;28;20041;-75
2023/02/04 01:11:36;;;;;;;5.15;1.17;;;4.30;99.90;;;;;;5008527;28;20032;-76
2023/02/04 01:14:02;;;;;;;3.90;1.13;;;4.30;99.90;;;;;;5029018;28;20429;-76
2023/02/04 01:16:28;;;;;;;4.15;1.23;;;4.30;99.90;;;;;;5027641;28;20036;-73
2023/02/04 01:18:54;;;;;;;1.92;0.98;;;4.20;99.90;;;;;;5025696;28;20499;-75
2023/02/04 01:21:24;;;;;;;2.30;0.90;;;4.20;99.90;;;;;;5027709;28;20029;-76
2023/02/04 01:23:51;;;;;;;1.27;0.80;;;4.20;99.90;;;;;;5027738;28;20069;-75
2023/02/04 01:26:18;;;;;;;2.45;1.00;;;4.20;99.90;;;;;;5028215;28;20109;-76
2023/02/04 01:28:44;;;;;;;3.25;1.15;;;4.20;99.90;;;;;;5026527;28;20029;-75
2023/02/04 01:31:11;;;;;;;1.88;1.20;;;4.20;99.90;;;;;;5028295;28;20188;-77
2023/02/04 01:33:37;;;;;;;1.90;1.20;;;4.20;99.90;;;;;;5008243;28;20519;-76
2023/02/04 01:36:03;;;;;;;2.33;1.00;;;4.20;99.90;;;;;;5026750;28;20384;-75
2023/02/04 01:38:29;;;;;;;2.25;0.95;;;4.20;99.90;;;;;;5032566;28;20039;-76
2023/02/04 01:40:55;;;;;;;3.60;1.10;;;4.20;99.90;;;;;;5026103;28;20100;-75
2023/02/04 01:43:22;;;;;;;2.90;1.13;;;4.20;99.90;;;;;;5007958;28;20037;-75
2023/02/04 01:45:49;;;;;;;2.03;0.90;;;4.20;99.90;;;;;;5009174;28;20038;-76
2023/02/04 01:48:19;;;;;;;6.32;1.33;;;4.20;99.90;;;;;;5007934;28;20053;-75
2023/02/04 01:50:59;;;;;;;3.83;1.33;;;4.20;99.90;;;;;;5007538;28;20037;-76
2023/02/04 01:53:25;;;;;;;2.08;1.30;;;4.20;99.90;;;;;;5031905;28;20032;-75
2023/02/04 01:55:52;;;;;;;4.57;1.25;;;4.30;99.90;;;;;;5047012;28;20041;-77
2023/02/04 01:58:18;;;;;;;3.13;0.90;;;4.30;99.90;;;;;;5013361;28;20175;-76
2023/02/04 02:00:44;;;;;;;2.72;1.10;;;4.30;99.90;;;;;;5028990;28;20146;-75
2023/02/04 02:03:10;;;;;;;4.40;1.20;;;4.30;99.90;;;;;;5028821;28;20511;-76
2023/02/04 02:05:39;;;;;;;4.50;1.45;;;4.30;99.90;;;;;;5031260;28;20413;-76
2023/02/04 02:08:06;;;;;;;2.97;1.02;;;4.30;99.90;;;;;;5029086;28;20033;-76
2023/02/04 02:10:33;;;;;;;3.00;1.35;;;4.40;99.90;;;;;;5029324;28;20017;-76
2023/02/04 02:12:59;;;;;;;3.78;1.40;;;4.40;99.90;;;;;;5027237;28;20030;-76
2023/02/04 02:15:26;;;;;;;1.52;1.05;;;4.40;99.90;;;;;;5041805;28;20064;-76
2023/02/04 02:17:53;;;;;;;2.72;1.33;;;4.40;99.90;;;;;;5029072;28;20116;-75
2023/02/04 02:20:21;;;;;;;2.78;1.08;;;4.40;99.90;;;;;;5026142;28;20571;-74
2023/02/04 02:22:50;;;;;;;3.95;1.30;;;4.40;99.90;;;;;;5010181;28;20036;-74
2023/02/04 02:25:15;;;;;;;1.90;1.00;;;4.40;99.90;;;;;;5025095;28;20120;-75
2023/02/04 02:27:42;;;;;;;2.35;1.20;;;4.40;99.90;;;;;;5029635;28;20430;-75
2023/02/04 02:30:09;;;;;;;3.80;1.30;;;4.30;99.90;;;;;;5010932;28;20042;-75
2023/02/04 02:32:36;;;;;;;1.60;1.10;;;4.30;99.90;;;;;;5027333;28;20025;-75
2023/02/04 02:35:02;;;;;;;3.58;1.73;;;4.20;99.90;;;;;;5028933;28;20501;-75
2023/02/04 02:37:28;;;;;;;2.03;1.27;;;4.30;99.90;;;;;;5029422;28;20409;-74
2023/02/04 02:39:54;;;;;;;3.92;1.40;;;4.30;99.90;;;;;;5028899;28;20536;-74
2023/02/04 02:42:21;;;;;;;3.10;1.35;;;4.30;99.90;;;;;;5011516;28;20442;-75
2023/02/04 02:44:48;;;;;;;3.80;1.48;;;4.30;99.90;;;;;;5011449;28;20195;-75
2023/02/04 02:47:15;;;;;;;5.63;1.38;;;4.30;99.90;;;;;;5029885;28;20504;-75
2023/02/04 02:49:42;;;;;;;5.32;1.58;;;4.40;99.90;;;;;;5027112;28;20040;-75
2023/02/04 02:52:12;;;;;;;3.17;1.40;;;4.40;99.90;;;;;;5030062;28;20036;-75
2023/02/04 02:54:39;;;;;;;3.80;1.38;;;4.40;99.90;;;;;;5029548;28;20033;-75
2023/02/04 02:57:18;;;;;;;3.88;1.50;;;4.40;99.90;;;;;;5027926;28;20524;-75
2023/02/04 02:59:44;;;;;;;2.13;1.35;;;4.30;99.90;;;;;;5029130;28;20497;-75
2023/02/04 03:02:15;;;;;;;6.22;1.65;;;4.20;99.90;;;;;;5031502;28;20057;-77
2023/02/04 03:04:44;;;;;;;2.83;1.27;;;4.20;99.90;;;;;;5029095;28;20034;-75
2023/02/04 03:07:13;;;;;;;4.63;1.40;;;4.10;99.90;;;;;;5031759;28;20094;-75
2023/02/04 03:09:39;;;;;;;4.68;1.73;;;4.00;99.90;;;;;;5030665;28;20033;-75
2023/02/04 03:12:05;;;;;;;2.60;1.48;;;4.00;99.90;;;;;;5025261;28;21259;-74
2023/02/04 03:14:32;;;;;;;5.32;1.70;;;4.00;99.90;;;;;;5031570;28;20088;-74
2023/02/04 03:17:00;;;;;;;3.90;1.30;;;4.00;99.90;;;;;;5035347;28;20072;-76
2023/02/04 03:19:27;;;;;;;2.70;1.50;;;3.90;99.90;;;;;;5034611;28;20073;-76
2023/02/04 03:21:54;;;;;;;5.88;1.50;;;3.90;99.90;;;;;;5030989;28;20214;-76
2023/02/04 03:24:20;;;;;;;2.70;1.50;;;3.80;99.90;;;;;;5030468;28;20514;-75
2023/02/04 03:26:46;;;;;;;5.35;1.50;;;3.80;99.90;;;;;;5029430;28;20034;-74
2023/02/04 03:29:11;;;;;;;4.25;1.67;;;3.80;99.90;;;;;;5042906;28;20026;-74
2023/02/04 03:31:37;;;;;;;4.07;1.58;;;3.80;99.90;;;;;;5008828;28;20022;-75
2023/02/04 03:34:04;;;;;;;3.95;2.05;;;3.80;99.90;;;;;;5030320;28;20036;-75
2023/02/04 03:36:29;;;;;;;7.00;1.67;;;3.80;99.90;;;;;;5032095;28;20037;-76
2023/02/04 03:38:55;;;;;;;7.30;1.98;;;3.70;99.90;;;;;;5031434;28;20553;-75
2023/02/04 03:41:21;;;;;;;4.88;1.92;;;3.70;99.90;;;;;;5025853;28;20044;-74
2023/02/04 03:43:47;;;;;;;3.83;1.65;;;3.70;99.90;;;;;;5027320;28;20080;-75
2023/02/04 03:46:13;;;;;;;4.72;1.85;;;3.60;99.90;;;;;;5028382;28;20033;-74
2023/02/04 03:48:39;;;;;;;3.42;1.45;;;3.60;99.90;;;;;;5008292;28;20029;-75
2023/02/04 03:51:04;;;;;;;3.45;2.15;;;3.60;99.90;;;;;;5027032;28;20033;-76
2023/02/04 03:53:30;;;;;;;4.45;1.73;;;3.60;99.90;;;;;;5029245;28;20025;-74
2023/02/04 03:55:56;;;;;;;3.15;1.45;;;3.60;99.90;;;;;;5028567;28;20541;-76
2023/02/04 03:58:22;;;;;;;4.38;1.77;;;3.60;99.90;;;;;;5010215;28;20049;-75
2023/02/04 04:00:48;;;;;;;3.58;1.80;;;3.60;99.90;;;;;;5008151;28;20032;-76
2023/02/04 04:03:14;;;;;;;6.22;2.08;;;3.60;99.90;;;;;;5028269;28;20034;-76
2023/02/04 04:05:40;;;;;;;3.63;2.00;;;3.60;99.90;;;;;;5029234;28;20030;-75
2023/02/04 04:08:06;;;;;;;4.00;1.80;;;3.70;99.90;;;;;;5016781;28;20022;-75
2023/02/04 04:10:31;;;;;;;6.90;1.80;;;3.70;99.90;;;;;;5016471;28;20029;-74
2023/02/04 04:12:57;;;;;;;2.92;1.67;;;3.70;99.90;;;;;;5041360;28;20029;-76
2023/02/04 04:15:23;;;;;;;2.65;1.60;;;3.70;99.90;;;;;;5025619;28;20037;-76
2023/02/04 04:17:48;;;;;;;5.00;2.28;;;3.80;99.90;;;;;;5028083;28;20096;-74
2023/02/04 04:20:14;;;;;;;3.28;2.13;;;3.80;99.90;;;;;;5029679;28;20041;-75
2023/02/04 04:22:40;;;;;;;4.60;1.52;;;3.80;99.90;;;;;;5030998;28;20492;-75
2023/02/04 04:25:06;;;;;;;5.55;1.83;;;3.80;99.90;;;;;;5026945;28;20177;-77
2023/02/04 04:27:32;;;;;;;6.10;2.17;;;3.80;99.90;;;;;;5043371;28;20147;-75
2023/02/04 04:29:58;;;;;;;5.90;1.90;;;3.90;99.90;;;;;;5042263;28;20104;-75
2023/02/04 04:32:23;;;;;;;3.00;1.83;;;3.80;99.90;;;;;;5026919;28;20029;-74
2023/02/04 04:34:49;;;;;;;5.00;2.28;;;3.70;99.90;;;;;;5041386;28;20596;-75
2023/02/04 04:37:15;;;;;;;7.22;2.00;;;3.80;99.90;;;;;;5028485;28;20076;-74
2023/02/04 04:39:40;;;;;;;3.08;1.60;;;3.80;99.90;;;;;;5025288;28;20512;-75
2023/02/04 04:42:06;;;;;;;2.72;1.80;;;3.80;99.90;;;;;;5029682;28;20544;-74
2023/02/04 04:44:32;;;;;;;4.72;2.42;;;3.70;99.90;;;;;;5028231;28;20063;-74
2023/02/04 04:46:58;;;;;;;5.82;2.05;;;3.80;99.90;;;;;;5009193;28;20029;-74
2023/02/04 04:49:23;;;;;;;5.85;2.00;;;3.80;99.90;;;;;;5024928;28;20389;-75
2023/02/04 04:51:49;;;;;;;3.00;1.70;;;3.80;99.90;;;;;;5024281;28;20444;-74
2023/02/04 04:54:15;;;;;;;4.32;1.88;;;3.90;99.90;;;;;;5040700;28;20061;-76
2023/02/04 04:56:41;;;;;;;5.05;2.00;;;3.80;99.90;;;;;;5026598;28;20036;-74
2023/02/04 04:59:06;;;;;;;4.53;1.92;;;3.90;99.90;;;;;;5021759;28;20092;-75
2023/02/04 05:01:32;;;;;;;3.90;1.90;;;3.90;99.90;;;;;;5046596;28;20048;-76
2023/02/04 05:03:58;;;;;;;5.30;1.98;;;3.80;99.90;;;;;;5030178;28;20494;-74
2023/02/04 05:06:24;;;;;;;3.97;1.63;;;3.90;99.90;;;;;;5029417;28;20456;-75
2023/02/04 05:08:51;;;;;;;3.22;1.77;;;3.80;99.90;;;;;;5021373;28;20037;-75
2023/02/04 05:11:17;;;;;;;3.95;2.15;;;3.80;99.90;;;;;;5008656;28;20029;-74
2023/02/04 05:13:43;;;;;;;3.67;1.80;;;3.90;99.90;;;;;;5031565;28;20030;-75
2023/02/04 05:16:12;;;;;;;4.97;1.95;;;3.80;99.90;;;;;;5033152;28;20033;-76
2023/02/04 05:18:40;;;;;;;4.20;2.03;;;3.80;99.90;;;;;;5036019;28;20033;-75
2023/02/04 05:21:07;;;;;;;4.07;2.15;;;3.80;99.90;;;;;;5027229;28;20030;-76
2023/02/04 05:23:33;;;;;;;5.82;2.15;;;3.80;99.90;;;;;;5026422;28;20084;-76
2023/02/04 05:25:59;;;;;;;5.63;1.92;;;3.80;99.90;;;;;;5026328;28;20167;-76
2023/02/04 05:28:25;;;;;;;3.97;2.17;;;3.70;99.90;;;;;;5028367;28;20100;-76
2023/02/04 05:30:50;;;;;;;4.25;1.80;;;3.70;99.90;;;;;;5024219;28;20533;-77
2023/02/04 05:33:16;;;;;;;4.22;1.88;;;3.60;99.90;;;;;;5026734;28;20037;-76
2023/02/04 05:35:42;;;;;;;2.83;1.85;;;3.50;99.90;;;;;;5012064;28;20093;-75
2023/02/04 05:38:08;;;;;;;2.70;1.80;;;3.50;99.90;;;;;;5041210;28;20047;-78
2023/02/04 05:40:34;;;;;;;5.40;2.03;;;3.50;99.90;;;;;;5024028;28;20172;-76
2023/02/04 05:43:00;;;;;;;5.28;2.38;;;3.50;99.90;;;;;;5009422;28;20569;-75
2023/02/04 05:45:25;;;;;;;4.72;2.50;;;3.40;99.90;;;;;;5027530;28;20048;-76
2023/02/04 05:47:52;;;;;;;6.65;3.25;;;3.40;99.90;;;;;;5025906;28;20028;-75
2023/02/04 05:50:17;;;;;;;8.98;2.63;;;3.40;99.90;;;;;;5019779;28;20029;-76
2023/02/04 05:52:43;;;;;;;7.43;2.50;;;3.40;99.90;;;;;;5025803;28;20021;-75
2023/02/04 05:55:13;;;;;;;3.80;2.28;;;3.40;99.90;;;;;;5029557;28;20145;-75
2023/02/04 05:57:39;;;;;;;5.25;2.50;;;3.40;99.90;;;;;;5025575;28;20611;-76
2023/02/04 06:00:06;;;;;;;4.45;2.35;;;3.30;99.90;;;;;;5026730;28;20068;-76
2023/02/04 06:02:31;;;;;;;4.75;2.25;;;3.30;99.90;;;;;;5025381;28;20037;-74
2023/02/04 06:04:57;;;;;;;5.65;2.58;;;3.30;99.90;;;;;;5024599;28;20057;-76
2023/02/04 06:07:23;;;;;;;3.33;2.10;;;3.30;99.90;;;;;;5022781;28;20026;-76
2023/02/04 06:09:48;;;;;;;4.85;2.33;;;3.30;99.90;;;;;;5013438;28;20049;-74
2023/02/04 06:12:14;;;;;;;3.72;2.50;;;3.20;99.90;;;;;;5041788;28;20093;-76
2023/02/04 06:14:40;;;;;;;6.15;2.50;;;3.20;99.90;;;;;;5026310;28;20021;-77
2023/02/04 06:17:06;;;;;;;4.05;2.50;;;3.20;99.90;;;;;;5023525;28;20401;-75
2023/02/04 06:19:31;;;;;;;3.72;2.20;;;3.20;99.90;;;;;;5023368;28;20028;-76
2023/02/04 06:21:57;;;;;;;6.00;2.40;;;3.20;99.90;;;;;;5024802;28;20332;-75
2023/02/04 06:24:23;;;;;;;5.47;2.78;;;3.20;99.90;;;;;;5026963;28;20129;-76
2023/02/04 06:26:48;;;;;;;6.40;3.20;;;3.10;99.90;;;;;;5029430;28;20072;-76
2023/02/04 06:29:14;;;;;;;4.47;2.53;;;3.10;99.90;;;;;;5022455;28;20026;-76
2023/02/04 06:31:40;;;;;;;3.88;2.53;;;3.10;99.90;;;;;;5027458;28;20014;-76
2023/02/04 06:34:05;;;;;;;5.20;2.47;;;3.00;99.90;;;;;;5026891;28;20509;-76
2023/02/04 06:36:32;;;;;;;3.92;2.70;;;3.00;99.90;;;;;;5024619;28;20029;-76
2023/02/04 06:38:58;;;;;;;6.63;2.80;;;3.00;99.90;;;;;;5028055;28;20204;-75
2023/02/04 06:41:23;;;;;;;3.70;2.40;;;3.00;99.90;;;;;;5033561;28;20088;-75
2023/02/04 06:43:49;;;;;;;4.60;2.58;;;3.00;99.90;;;;;;5041166;28;20409;-77
2023/02/04 06:46:15;;;;;;;5.07;2.83;;;3.00;99.90;;;;;;5031625;28;20068;-74
2023/02/04 06:48:41;;;;;;;4.35;2.75;;;3.00;99.90;;;;;;5029246;28;20588;-75
2023/02/04 06:51:06;;;;;;;5.00;3.20;;;2.90;99.90;;;;;;5025607;28;20033;-75
2023/02/04 06:53:32;;;;;;;5.07;2.95;;;2.90;99.90;;;;;;5026219;28;20029;-76
2023/02/04 06:55:59;;;;;;;5.43;3.10;;;3.00;99.90;;;;;;5014667;28;20549;-76
2023/02/04 06:58:25;;;;;;;7.72;3.00;;;3.00;99.90;;;;;;5029566;28;20493;-76
2023/02/04 07:00:50;;;;;;;8.77;3.30;;;3.00;99.90;;;;;;5005892;28;20125;-76
2023/02/04 07:03:16;;;;;;;4.38;2.70;;;3.00;99.90;;;;;;5029961;28;20508;-76
2023/02/04 07:05:42;;;;;;;7.45;3.28;;;3.00;99.90;;;;;;5031509;28;20028;-75
2023/02/04 07:08:08;;;;;;;8.23;3.28;;;3.00;99.90;;;;;;5045816;28;20037;-75
2023/02/04 07:10:34;;;;;;;4.25;2.80;;;3.00;99.90;;;;;;5028059;28;20032;-75
2023/02/04 07:12:59;;;;;;;4.03;2.65;;;3.00;99.90;;;;;;5029130;28;20034;-76
2023/02/04 07:15:25;;;;;;;7.13;3.13;;;3.00;99.90;;;;;;5021841;28;20044;-76
2023/02/04 07:17:51;;;;;;;6.88;2.95;;;3.00;99.90;;;;;;5045341;28;20025;-76
2023/02/04 07:20:17;;;;;;;5.13;2.85;;;3.10;99.90;;;;;;5038473;28;20382;-76
2023/02/04 07:22:43;;;;;;;8.27;3.15;;;3.10;99.90;;;;;;5033364;28;20133;-75
2023/02/04 07:25:13;;;;;;;5.80;3.00;;;3.10;99.90;;;;;;5028525;28;20096;-74
2023/02/04 07:27:39;;;;;;;6.03;3.15;;;3.10;99.90;;;;;;5029022;28;20028;-76
2023/02/04 07:30:08;;;;;;;5.95;3.08;;;3.10;99.90;;;;;;5003766;28;20509;-76
2023/02/04 07:32:34;;;;;;;5.00;2.95;;;3.10;99.90;;;;;;5028710;28;20113;-75
2023/02/04 07:35:00;;;;;;;6.03;3.50;;;3.10;99.90;;;;;;5010140;28;20112;-75
2023/02/04 07:37:25;;;;;;;3.72;2.50;;;3.10;99.90;;;;;;5025279;28;20060;-75
2023/02/04 07:39:51;;;;;;;6.30;2.92;;;3.20;99.90;;;;;;5026060;28;20052;-75
2023/02/04 07:42:17;;;;;;;5.90;3.10;;;3.20;99.90;;;;;;5026159;28;20030;-76
2023/02/04 07:44:43;;;;;;;6.57;3.25;;;3.20;99.90;;;;;;5006413;28;20117;-75
2023/02/04 07:47:08;;;;;;;9.27;3.72;;;3.20;99.90;;;;;;5025958;28;20025;-76
2023/02/04 07:49:37;;;;;;;3.80;2.60;;;3.20;99.90;;;;;;5027419;28;20433;-77
2023/02/04 07:52:03;;;;;;;6.03;3.10;;;5.40;99.90;;;;;;5036217;28;20049;-75
2023/02/04 07:54:29;;;;;;;5.00;3.00;;;4.70;99.90;;;;;;5034907;28;20037;-75
2023/02/04 07:56:55;;;;;;;6.10;2.88;;;4.20;99.90;;;;;;5033644;28;20079;-75
2023/02/04 07:59:21;;;;;;;3.42;2.47;;;4.00;99.90;;;;;;5040103;28;20116;-76
2023/02/04 08:01:48;;;;;;;6.15;2.45;;;3.90;99.90;;;;;;5005824;28;20034;-75
2023/02/04 08:04:14;;;;;;;4.65;2.80;;;5.60;99.90;;;;;;5023662;28;20040;-75
2023/02/04 08:06:40;;;;;;;3.75;2.20;;;5.00;99.90;;;;;;5023293;28;20025;-76
2023/02/04 08:09:06;;;;;;;6.75;2.50;;;4.60;99.90;;;;;;5027114;28;20494;-75
2023/02/04 08:11:31;;;;;;;5.18;2.80;;;4.30;99.90;;;;;;5029440;28;20040;-75
2023/02/04 08:13:57;;;;;;;6.82;2.80;;;4.10;99.90;;;;;;5040043;28;20029;-75
2023/02/04 08:16:23;;;;;;;4.72;2.40;;;4.00;99.90;;;;;;5025325;28;20029;-76
2023/02/04 08:18:48;;;;;;;4.63;2.33;;;3.90;99.90;;;;;;5020956;28;20033;-77
2023/02/04 08:21:14;;;;;;;3.78;2.38;;;3.90;99.90;;;;;;5008615;28;20571;-76
2023/02/04 08:23:40;;;;;;;4.32;2.15;;;3.90;99.90;;;;;;5007138;28;20059;-76
2023/02/04 08:26:10;;;;;;;3.10;2.15;;;3.80;99.90;;;;;;5033849;28;20021;-77
2023/02/04 08:28:37;;;;;;;4.80;2.00;;;3.90;99.90;;;;;;5023533;28;20060;-78
2023/02/04 08:31:05;;;;;;;7.07;2.55;;;3.70;99.90;;;;;;5004400;28;20041;-76
2023/02/04 08:33:31;;;;;;;6.03;2.28;;;3.60;99.90;;;;;;4989400;28;20100;-78
2023/02/04 08:35:58;;;;;;;3.80;2.08;;;3.70;99.90;;;;;;5033110;28;20031;-75
2023/02/04 08:38:23;;;;;;;3.75;2.17;;;3.70;99.90;;;;;;5023184;28;20036;-75
2023/02/04 08:40:49;;;;;;;5.20;2.28;;;3.60;99.90;;;;;;5006141;28;20029;-76
2023/02/04 08:43:15;;;;;;;6.28;1.98;;;3.60;99.90;;;;;;5023088;28;20041;-76
2023/02/04 08:45:41;;;;;;;2.70;1.70;;;3.60;99.90;;;;;;5022829;28;20735;-76
2023/02/04 08:48:08;;;;;;;6.63;2.38;;;3.60;99.90;;;;;;5025901;28;20108;-75
2023/02/04 08:50:34;;;;;;;3.30;1.60;;;3.50;99.90;;;;;;5025347;28;20048;-75
2023/02/04 08:52:59;;;;;;;4.78;1.90;;;3.50;99.90;;;;;;5040894;28;20030;-75
2023/02/04 08:55:25;;;;;;;4.63;1.98;;;3.60;99.90;;;;;;5005624;28;20021;-75
2023/02/04 08:57:51;;;;;;;4.45;2.17;;;3.60;99.90;;;;;;5022154;28;20056;-76
2023/02/04 09:00:17;;;;;;;4.55;1.85;;;3.70;99.90;;;;;;5021979;28;20033;-76
2023/02/04 09:02:43;;;;;;;3.35;1.80;;;3.80;99.90;;;;;;5019439;28;20474;-74
2023/02/04 09:05:08;;;;;;;4.95;1.70;;;3.80;99.90;;;;;;5000612;28;21156;-77
2023/02/04 09:07:34;;;;;;;4.57;2.17;;;3.80;99.90;;;;;;5020786;28;20033;-75
2023/02/04 09:10:01;;;;;;;4.78;1.90;;;3.90;99.90;;;;;;5008897;28;20021;-77
2023/02/04 09:12:27;;;;;;;3.05;1.73;;;3.90;99.90;;;;;;5033187;28;20053;-75
2023/02/04 09:14:52;;;;;;;3.42;1.80;;;4.20;99.90;;;;;;5048698;28;20064;-77
2023/02/04 09:17:18;;;;;;;4.30;1.67;;;4.10;99.90;;;;;;5026941;28;20441;-74
2023/02/04 09:19:44;;;;;;;3.22;1.65;;;4.10;99.90;;;;;;5027146;28;20076;-76
2023/02/04 09:22:12;;;;;;;3.60;2.38;;;4.00;99.90;;;;;;5007341;28;20080;-75
2023/02/04 09:24:38;;;;;;;5.43;2.03;;;4.00;99.90;;;;;;5014227;28;20067;-75
2023/02/04 09:27:04;;;;;;;4.20;1.65;;;4.00;99.90;;;;;;5015708;28;20045;-75
2023/02/04 09:29:31;;;;;;;5.32;1.75;;;3.90;99.90;;;;;;4984838;28;20072;-74
2023/02/04 09:31:57;;;;;;;4.00;1.52;;;3.90;99.90;;;;;;5024765;28;20048;-76
2023/02/04 09:34:23;;;;;;;4.28;1.90;;;3.90;99.90;;;;;;5018912;28;20067;-75
2023/02/04 09:36:49;;;;;;;3.22;1.88;;;3.90;99.90;;;;;;5032784;28;20033;-75
2023/02/04 09:39:14;;;;;;;2.75;1.73;;;3.90;99.90;;;;;;5002122;28;20029;-75
2023/02/04 09:41:42;;;;;;;3.17;1.75;;;3.90;99.90;;;;;;5028268;28;20029;-76
2023/02/04 09:44:20;;;;;;;4.80;2.13;;;4.00;99.90;;;;;;5034866;28;20030;-76
2023/02/04 09:46:52;;;;;;;2.58;1.73;;;4.00;99.90;;;;;;5027494;28;20034;-75
2023/02/04 09:49:18;;;;;;;3.88;1.67;;;4.00;99.90;;;;;;5023874;28;20034;-76
2023/02/04 09:51:45;;;;;;;4.70;1.80;;;4.10;99.90;;;;;;5005301;28;20513;-76
2023/02/04 09:54:19;;;;;;;2.83;1.83;;;4.10;99.90;;;;;;5002879;28;20123;-75
2023/02/04 09:56:45;;;;;;;5.70;1.80;;;4.10;99.90;;;;;;5007310;28;20120;-74
2023/02/04 09:59:19;;;;;;;4.15;2.00;;;4.50;99.90;;;;;;5020264;28;20025;-75
2023/02/04 10:01:56;;;;;;;2.92;1.70;;;4.40;99.90;;;;;;5021126;28;20506;-75
2023/02/04 10:04:22;;;;;;;4.18;2.08;;;4.20;99.90;;;;;;5003712;28;20778;-75
2023/02/04 10:06:48;;;;;;;2.88;1.65;;;4.10;99.90;;;;;;5025775;28;20036;-74
2023/02/04 10:09:15;;;;;;;5.00;2.20;;;4.10;99.90;;;;;;5019713;28;20036;-77
2023/02/04 10:11:43;;;;;;;2.90;2.00;;;4.10;99.90;;;;;;4995644;28;20016;-75
2023/02/04 10:14:16;;;;;;;3.50;1.88;;;4.10;99.90;;;;;;5017990;28;20033;-76
2023/02/04 10:16:44;;;;;;;4.30;1.85;;;4.10;99.90;;;;;;5020977;28;20523;-74
2023/02/04 10:19:14;;;;;;;2.75;1.40;;;4.10;99.90;;;;;;5020429;28;20037;-74
2023/02/04 10:21:43;;;;;;;3.47;1.53;;;4.20;99.90;;;;;;5017576;28;20036;-75
2023/02/04 10:24:21;;;;;;;3.00;1.52;;;4.20;99.90;;;;;;5033711;28;20052;-75
2023/02/04 10:26:47;;;;;;;3.25;1.65;;;4.20;99.90;;;;;;5024264;28;20048;-76
2023/02/04 10:29:17;;;;;;;5.03;1.52;;;4.30;99.90;;;;;;5005396;28;20033;-78
2023/02/04 10:31:46;;;;;;;2.70;1.40;;;4.40;99.90;;;;;;4988396;28;20057;-75
2023/02/04 10:34:16;;;;;;;2.78;1.40;;;4.40;99.90;;;;;;5023448;28;20037;-75
2023/02/04 10:36:47;;;;;;;3.60;1.60;;;4.50;99.90;;;;;;5039578;28;20083;-74
2023/02/04 10:39:14;;;;;;;;;;;4.70;99.90;;;;;;5026878;28;20374;-73
2023/02/04 10:41:47;;;;;;;4.63;1.90;;;4.90;99.90;;;;;;5019404;28;19917;-75
2023/02/04 10:44:14;;;;;;;2.97;2.00;;;5.10;99.90;;;;;;5029155;28;20116;-76
2023/02/04 10:46:41;;;;;;;2.40;1.42;;;5.10;99.90;;;;;;5028004;28;20029;-76
2023/02/04 10:49:18;;;;;;;2.92;2.05;;;5.20;99.90;;;;;;5026861;28;20029;-76
2023/02/04 10:51:44;;;;;;;2.88;1.50;;;5.40;99.90;;;;;;5018512;28;20059;-76
2023/02/04 10:54:30;;;;;;;5.38;2.00;;;5.30;99.90;;;;;;5017671;28;20059;-76
2023/02/04 10:57:30;;;;;;;5.65;1.63;;;5.30;99.90;;;;;;5037099;28;20029;-76
2023/02/04 11:00:02;;;;;;;4.60;1.55;;;5.50;99.90;;;;;;5008512;28;20045;-75
2023/02/04 11:02:43;;;;;;;8.68;1.95;;;5.50;99.90;;;;;;4996975;28;20033;-76
2023/02/04 11:05:15;;;;;;;8.75;3.30;;;5.60;99.90;;;;;;5023605;28;20581;-75
2023/02/04 11:07:42;;;;;;;4.82;2.40;;;5.50;99.90;;;;;;5033359;28;20100;-75
2023/02/04 11:10:28;;;;;;;5.65;2.30;;;5.60;99.90;;;;;;5024939;28;20032;-76
2023/02/04 11:12:54;;;;;;;6.50;3.10;;;5.60;99.90;;;;;;5022933;28;20021;-77
2023/02/04 11:15:39;;;;;;;5.22;2.28;;;5.60;99.90;;;;;;5020010;28;20033;-75
2023/02/04 11:18:09;;;;;;;6.93;3.20;;;5.70;99.90;;;;;;5018327;28;20037;-77
2023/02/04 11:20:40;;;;;;;3.70;2.20;;;5.70;99.90;;;;;;5027686;28;20021;-75
2023/02/04 11:23:31;;;;;;;4.40;1.70;;;5.80;99.90;;;;;;5005183;28;20043;-75
2023/02/04 11:26:22;;;;;;;4.65;1.80;;;5.90;99.90;;;;;;5023018;28;20576;-75
2023/02/04 11:28:56;;;;;;;2.55;1.33;;;5.90;99.90;;;;;;5024028;28;20025;-75
2023/02/04 11:31:21;;;;;;;3.10;1.38;;;5.90;99.90;;;;;;5029506;28;20029;-77
2023/02/04 11:33:49;;;;;;;2.92;1.48;;;5.90;99.90;;;;;;5023729;28;20056;-77
2023/02/04 11:36:16;;;;;;;2.75;1.33;;;5.80;99.90;;;;;;5035532;28;20037;-75
2023/02/04 11:38:48;;;;;;;4.18;1.40;;;5.90;99.90;;;;;;5025658;28;20041;-76
2023/02/04 11:41:28;;;;;;;2.25;1.30;;;5.90;99.90;;;;;;5028009;28;20029;-76
2023/02/04 11:43:56;;;;;;;3.00;1.40;;;6.00;99.90;;;;;;5027000;28;20033;-76
2023/02/04 11:46:24;;;;;;;1.58;1.00;;;5.90;99.90;;;;;;5026592;28;20561;-76
2023/02/04 11:48:57;;;;;;;3.05;1.23;;;5.90;99.90;;;;;;5027293;28;20044;-75
2023/02/04 11:51:30;;;;;;;3.60;1.08;;;5.90;99.90;;;;;;5022748;28;20089;-76
2023/02/04 11:53:55;;;;;;;2.67;1.30;;;5.80;99.90;;;;;;5030599;28;20104;-77
2023/02/04 11:56:23;;;;;;;3.55;1.63;;;6.00;99.90;;;;;;5018474;28;20103;-76
2023/02/04 11:58:50;;;;;;;3.92;1.60;;;5.80;99.90;;;;;;5032445;28;20033;-77
2023/02/04 12:01:20;;;;;;;2.33;1.58;;;5.70;99.90;;;;;;5025902;28;20065;-76
2023/02/04 12:03:48;;;;;;;3.15;1.73;;;5.60;99.90;;;;;;5025929;28;20073;-76
2023/02/04 12:06:23;;;;;;;5.22;2.33;;;5.70;99.90;;;;;;5027873;28;20096;-76
2023/02/04 12:08:48;;;;;;;4.25;1.77;;;5.80;99.90;;;;;;5028903;28;21049;-76
2023/02/04 12:11:26;;;;;;;3.53;1.52;;;6.00;99.90;;;;;;5029952;28;20017;-75
2023/02/04 12:13:56;;;;;;;2.60;1.30;;;5.80;99.90;;;;;;5027945;28;20029;-75
2023/02/04 12:16:23;;;;;;;2.58;1.60;;;5.90;99.90;;;;;;5022918;28;20140;-77
2023/02/04 12:18:49;;;;;;;2.67;1.55;;;5.90;99.90;;;;;;5009082;28;20036;-78
2023/02/04 12:21:15;;;;;;;3.15;1.52;;;6.10;99.90;;;;;;5026631;28;20445;-75
2023/02/04 12:23:41;;;;;;;3.20;1.70;;;6.00;99.90;;;;;;5027588;28;20029;-77
2023/02/04 12:26:08;;;;;;;5.10;1.58;;;6.10;99.90;;;;;;5028130;28;20025;-75
2023/02/04 12:28:34;;;;;;;2.70;1.30;;;6.10;99.90;;;;;;5033160;28;20041;-76
2023/02/04 12:31:01;;;;;;;1.63;1.15;;;6.20;99.90;;;;;;5022749;28;20045;-76
2023/02/04 12:33:27;;;;;;;3.67;1.55;;;6.30;99.90;;;;;;5021917;28;20528;-75
2023/02/04 12:35:53;;;;;;;2.20;1.40;;;6.20;99.90;;;;;;5021401;28;20030;-74
2023/02/04 12:38:19;;;;;;;2.70;1.20;;;6.20;99.90;;;;;;5026524;28;20029;-75
2023/02/04 12:40:45;;;;;;;3.72;1.45;;;6.00;99.90;;;;;;5021366;28;20059;-76
2023/02/04 12:43:11;;;;;;;5.85;1.50;;;6.00;99.90;;;;;;5020400;28;20497;-76
2023/02/04 12:45:38;;;;;;;3.10;1.30;;;5.60;99.90;;;;;;5023592;28;20039;-75
2023/02/04 12:48:05;;;;;;;3.88;1.40;;;5.60;99.90;;;;;;5023365;28;20029;-76
2023/02/04 12:50:30;;;;;;;2.70;1.60;;;5.50;99.90;;;;;;5029423;28;20103;-76
2023/02/04 12:52:58;;;;;;;3.55;1.30;;;5.60;99.90;;;;;;5026362;28;20475;-76
2023/02/04 12:55:27;;;;;;;2.95;1.30;;;5.50;99.90;;;;;;5011454;28;20029;-75
2023/02/04 12:57:55;;;;;;;2.75;1.17;;;5.50;99.90;;;;;;5032955;28;21231;-77